Montbéliard-Courcelles Airport

Airport
ICAO code: 
LFSM
Summary
ICAO Region: 
EUR
Territory: 
Location: 
, Franche-Comte
Serving: 
Montbeliard
Elevation: 
1041 ft
Coordinates: 
Aerial View: 
47° 29' 13.2" N, 6° 47' 25.93" E
Metar
Observation
LFSM 011530Z AUTO 23014KT 200V270 9999 OVC018/// ///TCU 08/06 Q1002
Station
Montbéliard-Courcelles
Date/Time
2021-12-01 15:30:00
Wind direction
230°
Wind speed
14 kts
Lowest cloud amount
overcast
Temperature
8°C
Dew point
6°C
Humidity
87%
QNH
1002 hPa
Weather condition
n/a

Runways

Designator Length Width Surface Rops
8/26 1700 20 ASP No/No
Airport map: 
Aerial View: 

SKYbrary Partners:

Safety knowledge contributed by: